Time;durP1;ratioP1;P1;durP2;ratioP2;P2;SDS_P1;SDS_P2;PMS_P1;PMS_P2;Temp;Humidity;BMP_temperature;BMP_pressure;BME280_temperature;BME280_humidity;BME280_pressure;Samples;Min_cycle;Max_cycle;Signal;HPM_P1;HPM_P2
2021/08/21 00:02:10;;;;;;;10.15;7.88;;;;;;;13.66;100.00;95135.00;5033127;28;20385;-60
2021/08/21 00:04:37;;;;;;;10.77;7.30;;;;;;;13.61;100.00;95131.28;5033195;28;20064;-60
2021/08/21 00:07:04;;;;;;;9.32;6.50;;;;;;;13.57;100.00;95126.75;5033163;28;20143;-60
2021/08/21 00:09:34;;;;;;;9.35;6.90;;;;;;;13.52;100.00;95124.88;5033052;28;20357;-60
2021/08/21 00:12:07;;;;;;;10.23;6.82;;;;;;;13.48;100.00;95129.25;5033184;28;20025;-58
2021/08/21 00:14:33;;;;;;;9.23;7.05;;;;;;;13.51;100.00;95125.19;5033062;28;20121;-60
2021/08/21 00:17:07;;;;;;;10.02;7.18;;;;;;;13.53;100.00;95125.69;5033234;28;20029;-60
2021/08/21 00:19:33;;;;;;;9.27;7.22;;;;;;;13.53;100.00;95118.41;5031703;28;20030;-60
2021/08/21 00:21:58;;;;;;;10.57;7.35;;;;;;;13.51;100.00;95109.84;5033292;28;20029;-60
2021/08/21 00:24:24;;;;;;;10.88;7.03;;;;;;;13.47;100.00;95116.88;5032933;28;20030;-57
2021/08/21 00:26:49;;;;;;;11.63;7.25;;;;;;;13.45;100.00;95115.53;5023546;28;20022;-59
2021/08/21 00:29:15;;;;;;;9.95;7.22;;;;;;;13.42;100.00;95113.41;5032844;28;20033;-60
2021/08/21 00:31:40;;;;;;;9.32;7.20;;;;;;;13.36;100.00;95103.78;5032485;28;20026;-59
2021/08/21 00:34:06;;;;;;;10.68;7.28;;;;;;;13.29;100.00;95110.28;5032229;28;20555;-56
2021/08/21 00:36:31;;;;;;;10.05;7.60;;;;;;;13.24;100.00;95109.50;5015183;28;20469;-58
2021/08/21 00:38:56;;;;;;;11.48;7.93;;;;;;;13.26;100.00;95101.97;5032587;28;20080;-59
2021/08/21 00:41:43;;;;;;;11.18;7.28;;;;;;;13.24;100.00;95102.25;5031966;28;20029;-59
2021/08/21 00:44:09;;;;;;;11.07;7.22;;;;;;;13.23;100.00;95091.75;5032869;28;20053;-59
2021/08/21 00:47:04;;;;;;;13.20;7.40;;;;;;;13.17;100.00;95093.66;5032991;28;20030;-60
2021/08/21 00:49:35;;;;;;;11.60;7.63;;;;;;;13.09;100.00;95096.94;5032275;28;20099;-60
2021/08/21 00:52:09;;;;;;;11.60;8.23;;;;;;;13.07;100.00;95097.22;5032186;28;20068;-60
2021/08/21 00:54:35;;;;;;;10.52;8.07;;;;;;;13.10;100.00;95093.16;5031965;28;20426;-58
2021/08/21 00:57:02;;;;;;;11.95;8.40;;;;;;;13.08;100.00;95084.59;5032109;28;20112;-59
2021/08/21 00:59:35;;;;;;;11.73;8.07;;;;;;;13.06;100.00;95079.50;5031812;28;20045;-60
2021/08/21 01:02:04;;;;;;;11.98;7.97;;;;;;;13.06;100.00;95086.75;5030950;28;20029;-60
2021/08/21 01:04:41;;;;;;;11.63;8.30;;;;;;;13.04;100.00;95070.13;5031974;28;20021;-60
2021/08/21 01:07:17;;;;;;;11.57;8.27;;;;;;;12.99;100.00;95068.25;5014315;28;20108;-59
2021/08/21 01:09:45;;;;;;;12.20;8.27;;;;;;;13.04;100.00;95062.84;5031545;28;20060;-59
2021/08/21 01:12:13;;;;;;;10.90;8.45;;;;;;;13.03;100.00;95053.19;5031962;28;20067;-58
2021/08/21 01:14:48;;;;;;;11.75;8.48;;;;;;;13.03;100.00;95053.19;5014154;28;20040;-58
2021/08/21 01:17:17;;;;;;;13.00;9.63;;;;;;;13.09;100.00;95040.47;5030487;28;20028;-58
2021/08/21 01:19:48;;;;;;;11.45;8.15;;;;;;;13.12;100.00;95036.41;5013860;28;20607;-60
2021/08/21 01:22:20;;;;;;;11.93;9.20;;;;;;;13.12;100.00;95022.97;5014056;28;20071;-60
2021/08/21 01:24:49;;;;;;;14.77;9.93;;;;;;;13.07;100.00;95021.94;5031816;28;20034;-60
2021/08/21 01:27:35;;;;;;;15.30;9.02;;;;;;;13.05;100.00;95009.88;5030534;28;20391;-60
2021/08/21 01:30:04;;;;;;;12.05;8.63;;;;;;;12.98;100.00;95007.50;5031653;28;20365;-60
2021/08/21 01:32:30;;;;;;;10.50;8.60;;;;;;;12.93;100.00;95010.25;5031373;28;20025;-60
2021/08/21 01:34:56;;;;;;;12.23;8.60;;;;;;;12.88;100.00;95014.84;5013987;28;20376;-60
2021/08/21 01:37:31;;;;;;;13.98;9.48;;;;;;;12.79;100.00;95017.31;5031459;28;20115;-60
2021/08/21 01:40:04;;;;;;;11.40;8.93;;;;;;;12.73;100.00;95015.75;5031387;28;20033;-60
2021/08/21 01:42:38;;;;;;;11.60;8.45;;;;;;;12.70;100.00;95014.44;5031469;28;20034;-60
2021/08/21 01:45:08;;;;;;;12.73;8.55;;;;;;;12.69;100.00;95015.50;5033856;28;20026;-60
2021/08/21 01:47:36;;;;;;;15.20;9.45;;;;;;;12.67;100.00;95019.56;5035210;28;20083;-60
2021/08/21 01:50:20;;;;;;;11.20;8.27;;;;;;;12.61;100.00;95013.41;5030170;28;20405;-60
2021/08/21 01:52:52;;;;;;;10.85;9.10;;;;;;;12.59;100.00;95014.75;4991192;28;20030;-60
2021/08/21 01:55:21;;;;;;;12.57;9.15;;;;;;;12.74;100.00;95014.69;5013784;28;20030;-58
2021/08/21 01:57:47;;;;;;;12.98;9.48;;;;;;;12.84;100.00;95003.84;5015008;28;20118;-59
2021/08/21 02:00:27;;;;;;;13.60;8.98;;;;;;;12.80;100.00;94997.41;5014282;28;20068;-60
2021/08/21 02:02:56;;;;;;;14.75;9.48;;;;;;;12.85;100.00;94985.84;5015101;28;20100;-60
2021/08/21 02:05:22;;;;;;;13.45;9.02;;;;;;;12.79;100.00;94982.38;5015018;28;20080;-60
2021/08/21 02:07:53;;;;;;;14.70;9.10;;;;;;;12.81;100.00;94987.47;5013484;28;20025;-60
2021/08/21 02:10:28;;;;;;;11.90;9.00;;;;;;;12.71;100.00;94991.84;5015070;28;20030;-60
2021/08/21 02:13:00;;;;;;;12.52;9.15;;;;;;;12.67;100.00;94990.00;5029086;28;20417;-60
2021/08/21 02:15:26;;;;;;;11.32;8.55;;;;;;;12.64;100.00;94983.28;5014820;28;20076;-60
2021/08/21 02:17:51;;;;;;;12.40;8.80;;;;;;;12.63;100.00;94979.00;5014575;28;20018;-60
2021/08/21 02:20:22;;;;;;;13.32;8.60;;;;;;;12.58;100.00;94978.22;5014452;28;20038;-60
2021/08/21 02:22:56;;;;;;;11.73;8.40;;;;;;;12.52;100.00;94984.75;5029912;28;20056;-60
2021/08/21 02:25:38;;;;;;;12.65;9.18;;;;;;;12.47;100.00;94982.88;5014524;28;20038;-60
2021/08/21 02:28:17;;;;;;;14.55;9.38;;;;;;;12.42;100.00;94969.47;5029022;28;20037;-60
2021/08/21 02:30:44;;;;;;;12.57;9.27;;;;;;;12.34;100.00;94970.06;5014275;28;20481;-59
2021/08/21 02:33:13;;;;;;;15.57;9.20;;;;;;;12.28;100.00;94966.63;5013133;28;20040;-60
2021/08/21 02:35:42;;;;;;;12.25;8.40;;;;;;;12.24;100.00;94965.56;5014316;28;20022;-60
2021/08/21 02:38:10;;;;;;;12.55;8.98;;;;;;;12.30;100.00;94961.78;5014429;28;20026;-59
2021/08/21 02:40:39;;;;;;;11.10;8.00;;;;;;;12.26;100.00;94960.69;5014185;28;20057;-60
2021/08/21 02:43:09;;;;;;;11.00;8.43;;;;;;;12.25;100.00;94958.31;5012798;28;20030;-60
2021/08/21 02:45:34;;;;;;;14.43;8.73;;;;;;;12.30;100.00;94950.22;5028851;28;20022;-59
2021/08/21 02:48:00;;;;;;;11.25;8.48;;;;;;;12.25;100.00;94952.94;5012844;28;20033;-57
2021/08/21 02:50:31;;;;;;;12.65;8.55;;;;;;;12.19;100.00;94941.44;5011867;28;20042;-60
2021/08/21 02:52:57;;;;;;;15.00;9.05;;;;;;;12.19;100.00;94944.13;4997069;28;20073;-59
2021/08/21 02:55:22;;;;;;;12.77;9.15;;;;;;;12.19;100.00;94934.19;5000921;28;20409;-59
2021/08/21 02:57:52;;;;;;;13.98;9.43;;;;;;;12.17;100.00;94932.84;5012456;28;20018;-59
2021/08/21 03:00:18;;;;;;;11.63;8.60;;;;;;;12.16;100.00;94931.25;5003508;28;20416;-60
2021/08/21 03:02:46;;;;;;;11.98;9.25;;;;;;;12.14;100.00;94931.50;5013081;28;20084;-60
2021/08/21 03:05:11;;;;;;;12.43;8.95;;;;;;;12.14;100.00;94923.44;5011545;28;20036;-60
2021/08/21 03:07:37;;;;;;;12.50;9.00;;;;;;;12.15;100.00;94925.06;5012998;28;20393;-60
2021/08/21 03:10:04;;;;;;;13.90;8.30;;;;;;;12.12;100.00;94916.75;5011524;28;20022;-60
2021/08/21 03:12:37;;;;;;;12.95;9.70;;;;;;;12.10;100.00;94914.38;5003445;28;20019;-60
2021/08/21 03:15:06;;;;;;;;;;;;;;;12.09;100.00;94914.66;5011183;28;20089;-60
2021/08/21 03:17:36;;;;;;;13.35;8.90;;;;;;;12.05;100.00;94913.59;5011479;28;19917;-60
2021/08/21 03:20:07;;;;;;;11.43;8.32;;;;;;;12.02;100.00;94917.63;5012768;28;20034;-60
2021/08/21 03:22:33;;;;;;;12.07;8.88;;;;;;;12.01;100.00;94910.66;5012690;28;20026;-60
2021/08/21 03:25:02;;;;;;;12.18;8.43;;;;;;;11.98;100.00;94911.22;5012287;28;20477;-58
2021/08/21 03:27:27;;;;;;;13.27;7.57;;;;;;;12.02;100.00;94908.78;5012661;28;20105;-58
2021/08/21 03:29:56;;;;;;;10.18;8.73;;;;;;;12.00;100.00;94911.75;5007260;28;20591;-60
2021/08/21 03:32:21;;;;;;;12.48;9.60;;;;;;;12.00;100.00;94911.75;5012626;28;20033;-59
2021/08/21 03:34:49;;;;;;;11.52;8.52;;;;;;;12.02;100.00;94906.09;5012274;28;20037;-59
2021/08/21 03:37:15;;;;;;;13.68;8.88;;;;;;;12.02;100.00;94904.22;5012570;28;20018;-57
2021/08/21 03:39:44;;;;;;;10.85;7.82;;;;;;;11.99;100.00;94906.66;5012268;28;20037;-59
2021/08/21 03:42:18;;;;;;;12.32;8.93;;;;;;;11.94;100.00;94906.66;5012343;28;20061;-57
2021/08/21 03:44:46;;;;;;;12.90;9.60;;;;;;;11.89;100.00;94902.16;5012424;28;20110;-57
2021/08/21 03:47:12;;;;;;;12.88;9.45;;;;;;;11.94;100.00;94899.44;5012353;28;20014;-60
2021/08/21 03:49:38;;;;;;;10.77;8.68;;;;;;;11.97;100.00;94900.75;5018723;28;20041;-58
2021/08/21 03:52:06;;;;;;;14.75;9.27;;;;;;;11.95;100.00;94898.38;5031816;28;20468;-58
2021/08/21 03:54:34;;;;;;;12.18;8.65;;;;;;;11.92;100.00;94884.66;5031318;28;20024;-59
2021/08/21 03:57:00;;;;;;;12.93;9.30;;;;;;;11.86;100.00;94890.09;5031686;28;20071;-58
2021/08/21 03:59:25;;;;;;;13.02;9.20;;;;;;;11.86;100.00;94891.97;5014069;28;20473;-60
2021/08/21 04:01:53;;;;;;;10.85;8.63;;;;;;;11.84;100.00;94888.75;5014085;28;20017;-60
2021/08/21 04:04:18;;;;;;;11.70;8.95;;;;;;;11.90;100.00;94893.81;5031211;28;20107;-60
2021/08/21 04:06:44;;;;;;;14.32;9.77;;;;;;;11.91;100.00;94891.94;5031603;28;20465;-60
2021/08/21 04:09:12;;;;;;;11.82;8.85;;;;;;;11.89;100.00;94892.22;5013827;28;20057;-60
2021/08/21 04:11:37;;;;;;;13.63;9.00;;;;;;;11.87;100.00;94885.53;5031594;28;20037;-56
2021/08/21 04:14:05;;;;;;;14.85;9.30;;;;;;;11.86;100.00;94878.56;5031512;28;20017;-60
2021/08/21 04:16:33;;;;;;;13.02;9.75;;;;;;;11.96;100.00;94878.50;5030040;28;20028;-60
2021/08/21 04:19:01;;;;;;;16.20;9.95;;;;;;;12.00;100.00;94873.34;5031508;28;20033;-59
2021/08/21 04:21:27;;;;;;;13.65;9.20;;;;;;;11.97;100.00;94871.25;5031371;28;20171;-59
2021/08/21 04:23:54;;;;;;;12.32;9.18;;;;;;;11.97;100.00;94874.72;5031465;28;20504;-60
2021/08/21 04:26:21;;;;;;;13.32;9.82;;;;;;;11.94;100.00;94880.66;5013744;28;20030;-60
2021/08/21 04:28:47;;;;;;;16.50;10.07;;;;;;;11.84;100.00;94881.50;5030240;28;20364;-58
2021/08/21 04:31:12;;;;;;;13.95;9.18;;;;;;;11.76;100.00;94883.94;5020402;28;20028;-60
2021/08/21 04:33:38;;;;;;;12.38;9.73;;;;;;;11.71;100.00;94884.75;5030104;28;20021;-57
2021/08/21 04:36:06;;;;;;;13.30;9.40;;;;;;;11.76;100.00;94876.69;5013143;28;20030;-60
2021/08/21 04:38:32;;;;;;;13.63;9.48;;;;;;;11.75;100.00;94868.94;5031475;28;20068;-59
2021/08/21 04:41:08;;;;;;;12.93;9.73;;;;;;;11.75;100.00;94864.34;5031335;28;20052;-58
2021/08/21 04:43:33;;;;;;;15.98;9.63;;;;;;;11.88;100.00;94862.97;5031361;28;20112;-60
2021/08/21 04:46:02;;;;;;;11.55;9.23;;;;;;;11.90;100.00;94871.53;5030733;28;20104;-60
2021/08/21 04:48:30;;;;;;;17.48;10.68;;;;;;;11.77;100.00;94880.97;5031213;28;20025;-59
2021/08/21 04:50:58;;;;;;;13.15;9.90;;;;;;;11.70;100.00;94879.66;5053454;23;20049;-49
2021/08/21 04:53:24;;;;;;;11.70;8.80;;;;;;;11.65;100.00;94887.75;5033225;28;20394;-52
2021/08/21 04:55:51;;;;;;;12.50;9.63;;;;;;;11.67;100.00;94885.59;5051646;28;20021;-49
2021/08/21 04:58:17;;;;;;;12.63;9.35;;;;;;;11.76;100.00;94882.06;5051975;28;20068;-49
2021/08/21 05:00:45;;;;;;;14.07;9.70;;;;;;;11.72;100.00;94889.06;5051884;28;20418;-53
2021/08/21 05:03:10;;;;;;;14.65;9.80;;;;;;;11.72;100.00;94888.25;5052023;28;20447;-50
2021/08/21 05:08:21;;;;;;;14.35;9.85;;;;;;;11.79;100.00;94891.44;5037012;28;20032;-49
2021/08/21 05:10:47;;;;;;;16.20;9.75;;;;;;;11.89;100.00;94888.72;5051785;28;20479;-49
2021/08/21 05:13:12;;;;;;;19.08;10.30;;;;;;;12.02;100.00;94882.72;5051792;28;20033;-49
2021/08/21 05:15:39;;;;;;;13.75;10.13;;;;;;;12.14;100.00;94877.00;5051755;28;20025;-49
2021/08/21 05:18:05;;;;;;;16.45;10.80;;;;;;;12.28;100.00;94874.53;5034052;28;20025;-51
2021/08/21 05:20:53;;;;;;;13.88;9.65;;;;;;;12.36;100.00;94863.16;5037254;28;20510;-49
2021/08/21 05:23:19;;;;;;;15.02;10.07;;;;;;;12.45;100.00;94866.84;5037643;28;20033;-51
2021/08/21 05:25:46;;;;;;;15.63;10.65;;;;;;;12.60;100.00;94857.88;5055346;28;20139;-53
2021/08/21 05:28:13;;;;;;;16.48;11.50;;;;;;;12.77;100.00;94856.34;5037747;28;20444;-52
2021/08/21 05:30:42;;;;;;;14.98;11.15;;;;;;;12.90;100.00;94851.38;5037051;28;20029;-49
2021/08/21 05:33:18;;;;;;;17.92;10.95;;;;;;;12.96;100.00;94840.28;5054631;28;20029;-54
2021/08/21 05:35:43;;;;;;;17.10;11.60;;;;;;;13.01;100.00;94847.50;5037226;28;20036;-50
2021/08/21 05:38:15;;;;;;;16.38;10.90;;;;;;;13.03;100.00;94856.09;5055280;28;20037;-53
2021/08/21 05:40:43;;;;;;;16.23;11.02;;;;;;;13.09;100.00;94846.06;5055103;28;20403;-49
2021/08/21 05:43:10;;;;;;;16.13;11.73;;;;;;;13.14;100.00;94851.41;5041039;28;20025;-51
2021/08/21 05:45:35;;;;;;;17.33;11.85;;;;;;;13.20;100.00;94859.16;5051186;28;20024;-51
2021/08/21 05:48:04;;;;;;;16.48;12.18;;;;;;;13.39;100.00;94843.06;5037298;28;20032;-52
2021/08/21 05:50:29;;;;;;;19.00;13.85;;;;;;;13.63;100.00;94849.19;5044493;28;20049;-53
2021/08/21 05:52:55;;;;;;;20.80;14.70;;;;;;;13.87;100.00;94849.13;5056157;28;20029;-54
2021/08/21 05:55:23;;;;;;;26.83;15.38;;;;;;;14.14;100.00;94836.91;5053612;28;20031;-49
2021/08/21 05:57:48;;;;;;;21.90;15.43;;;;;;;14.39;100.00;94831.13;4925032;28;157048;-48
2021/08/21 06:00:16;;;;;;;21.20;14.90;;;;;;;14.62;100.00;94825.91;5037674;28;20052;-48
2021/08/21 06:02:42;;;;;;;21.88;15.82;;;;;;;14.85;100.00;94826.84;5047195;28;20020;-55
2021/08/21 06:05:11;;;;;;;20.65;14.48;;;;;;;15.04;100.00;94808.69;5046763;28;20017;-49
2021/08/21 06:07:37;;;;;;;21.75;14.55;;;;;;;15.26;100.00;94805.31;5023455;28;20107;-49
2021/08/21 06:10:04;;;;;;;14.85;11.93;;;;;;;15.46;100.00;94809.50;5052296;28;20408;-48
2021/08/21 06:12:29;;;;;;;16.08;11.85;;;;;;;15.57;100.00;94808.16;5055712;28;20025;-49
2021/08/21 06:14:55;;;;;;;15.05;10.15;;;;;;;15.63;100.00;94815.09;5054226;28;20093;-57
2021/08/21 06:17:27;;;;;;;16.63;10.35;;;;;;;15.55;100.00;94827.38;5049265;28;20438;-49
2021/08/21 06:19:58;;;;;;;12.63;9.40;;;;;;;15.69;100.00;94831.97;5021190;28;20028;-54
2021/08/21 06:22:26;;;;;;;11.75;9.30;;;;;;;15.89;100.00;94834.25;5030930;28;20111;-56
2021/08/21 06:25:06;;;;;;;14.07;9.38;;;;;;;16.07;100.00;94830.59;5052513;28;20025;-50
2021/08/21 06:27:35;;;;;;;14.68;10.25;;;;;;;16.34;100.00;94824.28;5045615;28;20522;-54
2021/08/21 06:30:03;;;;;;;13.52;9.30;;;;;;;16.58;100.00;94823.94;5049119;28;20071;-51
2021/08/21 06:32:28;;;;;;;14.93;9.85;;;;;;;16.82;100.00;94818.22;5027543;28;20020;-56
2021/08/21 06:34:54;;;;;;;16.55;9.80;;;;;;;17.05;100.00;94819.81;5051649;28;20067;-55
2021/08/21 06:37:24;;;;;;;13.98;9.70;;;;;;;17.25;100.00;94813.00;5051320;28;20025;-49
2021/08/21 06:39:50;;;;;;;14.00;10.30;;;;;;;17.47;100.00;94805.91;5042442;28;20029;-49
2021/08/21 06:42:18;;;;;;;13.50;9.23;;;;;;;17.70;100.00;94810.16;5032128;28;20386;-50
2021/08/21 06:44:45;;;;;;;12.18;8.98;;;;;;;17.87;100.00;94810.16;5054246;28;20098;-49
2021/08/21 06:47:11;;;;;;;12.48;9.43;;;;;;;18.17;100.00;94797.59;5056117;28;20029;-49
2021/08/21 06:49:38;;;;;;;11.82;9.57;;;;;;;18.47;100.00;94789.59;5035885;28;20376;-49
2021/08/21 06:52:04;;;;;;;11.38;9.60;;;;;;;18.69;100.00;94780.50;5053555;28;20060;-49
2021/08/21 06:54:30;;;;;;;18.05;9.60;;;;;;;18.95;100.00;94756.75;5036395;28;20025;-50
2021/08/21 06:56:58;;;;;;;12.43;10.05;;;;;;;19.24;100.00;94745.16;5053543;28;20506;-49
2021/08/21 06:59:23;;;;;;;10.55;8.70;;;;;;;19.51;100.00;94710.47;5035741;28;20072;-49
2021/08/21 07:01:49;;;;;;;12.13;9.13;;;;;;;19.73;100.00;94690.34;5035583;28;20060;-49
2021/08/21 07:04:22;;;;;;;14.93;9.38;;;;;;;19.94;100.00;94663.97;5053536;28;20028;-49
2021/08/21 07:06:50;;;;;;;11.40;9.15;;;;;;;20.17;100.00;94634.47;5035736;28;20191;-49
2021/08/21 07:09:20;;;;;;;12.95;8.65;;;;;;;20.39;100.00;94622.38;5053530;28;20033;-49
2021/08/21 07:11:45;;;;;;;13.40;8.98;;;;;;;20.69;100.00;94628.44;5053336;28;20530;-49
2021/08/21 07:14:11;;;;;;;12.63;8.90;;;;;;;20.91;100.00;94641.63;5035355;28;20028;-53
2021/08/21 07:16:39;;;;;;;10.45;8.63;;;;;;;21.12;100.00;94661.34;5052908;28;20475;-50
2021/08/21 07:19:06;;;;;;;10.85;8.95;;;;;;;21.33;100.00;94691.19;5053087;28;20024;-49
2021/08/21 07:21:32;;;;;;;11.65;8.65;;;;;;;21.45;100.00;94717.63;5052880;28;20112;-49
2021/08/21 07:23:58;;;;;;;10.95;8.10;;;;;;;21.58;100.00;94743.72;5052798;28;20028;-52
2021/08/21 07:26:23;;;;;;;10.75;8.65;;;;;;;21.77;100.00;94777.78;5053020;28;20035;-50
2021/08/21 07:28:49;;;;;;;10.60;8.50;;;;;;;21.98;100.00;94811.94;5035075;28;20297;-52
2021/08/21 07:31:17;;;;;;;13.52;9.10;;;;;;;22.13;100.00;94856.03;5035079;28;20021;-50
2021/08/21 07:33:43;;;;;;;9.27;7.68;;;;;;;22.37;100.00;94898.88;5052889;28;20162;-52
2021/08/21 07:36:09;;;;;;;13.18;8.18;;;;;;;22.54;100.00;94934.09;5052903;28;20566;-51
2021/08/21 07:38:39;;;;;;;12.43;8.38;;;;;;;22.56;100.00;94975.47;5052705;28;20078;-50
2021/08/21 07:41:08;;;;;;;9.43;7.57;;;;;;;22.69;100.00;94998.13;5051887;28;20063;-56
2021/08/21 07:43:39;;;;;;;10.38;8.20;;;;;;;22.69;100.00;95039.06;5035000;28;20033;-50
2021/08/21 07:46:05;;;;;;;10.23;8.38;;;;;;;22.69;100.00;95060.91;5052911;28;20032;-51
2021/08/21 07:48:30;;;;;;;11.00;7.93;;;;;;;22.72;100.00;95095.72;5034971;28;20021;-51
2021/08/21 07:50:58;;;;;;;10.70;8.27;;;;;;;22.67;100.00;95123.22;5052196;28;20052;-50
2021/08/21 07:53:26;;;;;;;9.27;7.95;;;;;;;22.57;100.00;95124.47;5052475;28;20025;-52
2021/08/21 07:55:51;;;;;;;10.70;8.05;;;;;;;22.67;100.00;95123.22;5034838;28;20039;-52
2021/08/21 07:58:19;;;;;;;9.52;7.82;;;;;;;22.88;100.00;95114.97;5052458;28;20029;-50
2021/08/21 08:00:44;;;;;;;8.38;7.15;;;;;;;23.20;100.00;95165.13;5034004;28;20032;-50
2021/08/21 08:03:14;;;;;;;9.90;8.25;;;;;;;23.34;100.00;95201.13;5052455;28;20071;-53
2021/08/21 08:05:41;;;;;;;10.50;7.82;;;;;;;23.62;100.00;95217.63;5052269;28;20499;-51
2021/08/21 08:08:07;;;;;;;11.45;8.38;;;;;;;23.74;100.00;95266.81;5034425;28;20067;-50
2021/08/21 08:10:36;;;;;;;10.05;7.70;;;;;;;24.07;100.00;95263.13;5034150;28;20020;-50
2021/08/21 08:13:04;;;;;;;11.40;7.72;;;;;;;24.31;100.00;95276.75;5052634;28;20021;-53
2021/08/21 08:15:50;;;;;;;9.93;7.28;;;;;;;24.41;100.00;95305.56;5052285;28;20025;-52
2021/08/21 08:18:18;;;;;;;8.63;7.05;;;;;;;24.49;100.00;95367.63;5034391;28;20033;-52
2021/08/21 08:20:43;;;;;;;8.38;6.93;;;;;;;24.68;100.00;95386.19;5052109;28;20112;-53
2021/08/21 08:23:11;;;;;;;10.40;7.82;;;;;;;24.79;100.00;95390.00;5052113;28;20116;-51
2021/08/21 08:25:42;;;;;;;8.55;6.70;;;;;;;24.86;100.00;95406.66;5034238;28;20075;-51
2021/08/21 08:28:18;;;;;;;10.50;7.47;;;;;;;24.96;100.00;95397.13;5052093;28;20426;-57
2021/08/21 08:30:49;;;;;;;11.02;7.13;;;;;;;25.02;100.00;95429.47;5034098;28;20029;-50
2021/08/21 08:33:14;;;;;;;7.85;7.05;;;;;;;25.20;100.00;95418.22;5052200;28;20025;-53
2021/08/21 08:35:43;;;;;;;9.40;7.07;;;;;;;25.38;100.00;95436.72;5034194;28;20029;-56
2021/08/21 08:38:08;;;;;;;7.53;6.75;;;;;;;25.40;100.00;95437.19;5034181;28;20186;-52
2021/08/21 08:40:34;;;;;;;8.63;7.30;;;;;;;25.44;100.00;95446.28;5051865;28;20055;-53
2021/08/21 08:43:06;;;;;;;11.13;7.47;;;;;;;25.39;100.00;95418.31;5034092;28;20033;-50
2021/08/21 08:45:36;;;;;;;11.03;7.23;;;;;;;25.61;100.00;95419.66;5051995;28;20100;-52
2021/08/21 08:48:02;;;;;;;12.13;7.55;;;;;;;25.98;100.00;95428.50;5051947;28;20957;-53
2021/08/21 08:50:29;;;;;;;8.63;7.25;;;;;;;26.14;100.00;95450.44;5051604;28;20137;-54
2021/08/21 08:52:57;;;;;;;9.40;7.65;;;;;;;26.34;100.00;95481.50;5051737;28;20053;-51
2021/08/21 08:55:23;;;;;;;10.50;7.60;;;;;;;26.31;100.00;95499.50;5055496;28;20096;-51
2021/08/21 08:57:55;;;;;;;12.02;7.72;;;;;;;26.10;100.00;95455.03;5055836;28;20507;-51
2021/08/21 09:00:26;;;;;;;10.57;8.07;;;;;;;26.20;100.00;95490.22;5055812;28;20369;-55
2021/08/21 09:02:55;;;;;;;9.32;7.47;;;;;;;26.53;100.00;95481.59;5022143;28;20028;-52
2021/08/21 09:05:36;;;;;;;11.40;7.85;;;;;;;26.74;100.00;95511.53;5037946;28;20029;-52
2021/08/21 09:08:02;;;;;;;12.50;8.15;;;;;;;26.74;100.00;95520.56;5052068;28;20025;-49
2021/08/21 09:10:29;;;;;;;10.07;7.97;;;;;;;26.90;100.00;95511.47;4972706;28;20099;-51
2021/08/21 09:13:12;;;;;;;10.57;8.15;;;;;;;26.85;100.00;95534.56;5052187;28;20039;-55
2021/08/21 09:15:40;;;;;;;12.02;8.23;;;;;;;26.71;100.00;95515.78;5055526;28;20028;-50
2021/08/21 09:18:20;;;;;;;16.33;8.05;;;;;;;26.89;100.00;95505.19;5055447;28;20025;-52
2021/08/21 09:20:49;;;;;;;7.82;7.00;;;;;;;26.93;100.00;95492.34;5055407;28;20029;-53
2021/08/21 09:23:29;;;;;;;9.68;7.07;;;;;;;27.25;100.00;95539.78;5055468;28;20071;-51
2021/08/21 09:26:14;;;;;;;8.90;8.00;;;;;;;27.53;100.00;95574.56;5055381;28;20025;-56
2021/08/21 09:28:44;;;;;;;9.15;7.55;;;;;;;27.97;100.00;95586.06;5037868;28;20388;-49
2021/08/21 09:31:17;;;;;;;9.15;7.60;;;;;;;28.27;100.00;95589.00;5055354;28;20020;-51
2021/08/21 09:33:50;;;;;;;10.63;7.95;;;;;;;28.11;100.00;95594.59;5055462;28;20133;-53
2021/08/21 09:36:36;;;;;;;11.85;8.32;;;;;;;28.26;100.00;95625.97;5055358;28;20391;-53
2021/08/21 09:39:12;;;;;;;9.18;7.97;;;;;;;28.44;100.00;95607.84;5037183;28;20086;-54
2021/08/21 09:42:03;;;;;;;10.32;8.43;;;;;;;28.45;100.00;95608.66;5054610;28;20498;-56
2021/08/21 09:44:43;;;;;;;10.02;8.15;;;;;;;28.40;100.00;95629.03;5054607;28;20082;-53
2021/08/21 09:47:28;;;;;;;11.23;8.73;;;;;;;28.61;100.00;95638.84;5054555;28;20035;-49
2021/08/21 09:50:14;;;;;;;9.35;7.88;;;;;;;28.63;100.00;95647.53;5054843;28;20037;-53
2021/08/21 09:52:46;;;;;;;8.52;7.55;;;;;;;28.82;100.00;95628.97;5033525;28;20032;-59
2021/08/21 09:55:20;;;;;;;11.15;8.52;;;;;;;28.51;100.00;95643.78;5034728;28;20036;-53
2021/08/21 09:58:15;;;;;;;11.70;8.57;;;;;;;28.24;100.00;95633.81;5037610;28;20029;-50
2021/08/21 10:00:44;;;;;;;9.60;8.60;;;;;;;28.35;100.00;95634.03;5053250;28;20476;-50
2021/08/21 10:03:13;;;;;;;14.25;8.77;;;;;;;28.44;100.00;95627.13;5053268;28;20036;-53
2021/08/21 10:05:40;;;;;;;9.38;7.80;;;;;;;28.52;100.00;95636.31;5053740;28;20033;-53
2021/08/21 10:08:22;;;;;;;10.00;7.97;;;;;;;28.35;100.00;95658.84;5054305;28;20096;-55
2021/08/21 10:10:59;;;;;;;12.40;9.37;;;;;;;28.53;100.00;95666.25;5054744;28;20032;-50
2021/08/21 10:13:50;;;;;;;8.68;7.78;;;;;;;28.60;100.00;95654.56;5036702;28;20029;-52
2021/08/21 10:16:19;;;;;;;12.00;8.23;;;;;;;28.68;100.00;95656.31;5036682;28;20422;-51
2021/08/21 10:18:55;;;;;;;8.20;7.25;;;;;;;28.83;100.00;95649.84;5036636;28;20548;-53
2021/08/21 10:21:21;;;;;;;9.57;7.90;;;;;;;28.91;100.00;95663.81;5036692;28;20063;-53
2021/08/21 10:23:49;;;;;;;9.57;8.18;;;;;;;29.20;100.00;95673.31;5036425;28;20047;-52
2021/08/21 10:26:39;;;;;;;11.55;8.25;;;;;;;29.28;100.00;95678.56;5054519;28;20021;-52
2021/08/21 10:29:10;;;;;;;10.07;8.98;;;;;;;29.63;100.00;95705.13;5054402;28;20017;-50
2021/08/21 10:31:44;;;;;;;11.50;8.07;;;;;;;29.70;100.00;95703.28;5054273;28;20056;-53
2021/08/21 10:34:15;;;;;;;10.00;8.00;;;;;;;29.98;100.00;95699.34;5054370;28;20021;-55
2021/08/21 10:36:52;;;;;;;8.90;7.97;;;;;;;30.25;99.11;95720.22;5054233;28;20060;-52
2021/08/21 10:39:25;;;;;;;8.82;7.93;;;;;;;30.42;98.06;95726.34;5054353;28;20036;-52
2021/08/21 10:41:54;;;;;;;10.07;7.20;;;;;;;30.47;93.14;95745.34;5054005;28;20523;-54
2021/08/21 10:44:47;;;;;;;9.13;7.30;;;;;;;30.56;94.07;95743.09;5042900;28;20079;-51
2021/08/21 10:47:31;;;;;;;7.65;6.53;;;;;;;30.01;91.30;95754.63;5054431;28;20110;-52
2021/08/21 10:50:15;;;;;;;7.63;6.82;;;;;;;30.25;92.23;95747.06;5035918;28;20511;-49
2021/08/21 10:52:52;;;;;;;11.50;7.07;;;;;;;30.23;94.63;95736.38;5073863;23;20041;-60
2021/08/21 10:55:37;;;;;;;8.35;7.30;;;;;;;30.52;95.10;95736.75;5034855;28;20027;-60
2021/08/21 10:58:07;;;;;;;7.47;6.72;;;;;;;30.83;91.05;95743.84;5035801;28;20025;-59
2021/08/21 11:00:39;;;;;;;8.30;7.50;;;;;;;30.70;93.52;95734.97;5035786;28;20026;-60
2021/08/21 11:03:12;;;;;;;9.60;7.50;;;;;;;30.98;89.86;95742.78;5053640;28;20056;-56
2021/08/21 11:05:56;;;;;;;7.60;6.80;;;;;;;31.09;86.21;95746.44;5035873;28;20037;-59
2021/08/21 11:08:27;;;;;;;7.07;6.28;;;;;;;31.44;84.83;95754.28;5053518;28;20025;-60
2021/08/21 11:11:08;;;;;;;7.43;6.70;;;;;;;31.81;85.56;95747.09;5053410;28;20036;-59
2021/08/21 11:14:21;;;;;;;7.65;6.88;;;;;;;31.99;84.60;95753.50;5035508;28;20028;-57
2021/08/21 11:17:00;;;;;;;7.28;6.57;;;;;;;31.82;83.60;95751.44;5052516;28;20430;-60
2021/08/21 11:19:46;;;;;;;7.97;7.28;;;;;;;31.91;88.53;95738.84;5053391;28;20063;-61
2021/08/21 11:22:24;;;;;;;8.77;7.18;;;;;;;31.88;82.02;95747.91;5052976;28;20053;-57
2021/08/21 11:25:04;;;;;;;6.85;6.15;;;;;;;31.90;80.66;95750.28;5053257;28;20360;-56
2021/08/21 11:27:35;;;;;;;7.07;6.25;;;;;;;31.94;78.31;95749.16;5053260;28;20021;-58
2021/08/21 11:30:09;;;;;;;6.72;6.13;;;;;;;31.77;78.15;95752.59;5050243;28;20063;-59
2021/08/21 11:32:42;;;;;;;6.72;5.90;;;;;;;31.87;73.96;95753.84;5038887;28;20099;-55
2021/08/21 11:35:17;;;;;;;7.63;6.10;;;;;;;31.96;74.79;95752.31;5049186;28;20028;-56
2021/08/21 11:38:02;;;;;;;6.53;5.82;;;;;;;32.25;75.73;95746.94;5049240;28;20142;-57